Time;durP1;ratioP1;P1;durP2;ratioP2;P2;SDS_P1;SDS_P2;PMS_P1;PMS_P2;Temp;Humidity;BMP_temperature;BMP_pressure;BME280_temperature;BME280_humidity;BME280_pressure;Samples;Min_cycle;Max_cycle;Signal;HPM_P1;HPM_P2
2023/05/30 00:00:13;;;;;;;7.13;2.92;;;16.00;61.00;;;;;;6120455;23;20030;-70
2023/05/30 00:02:43;;;;;;;3.97;1.63;;;15.90;61.10;;;;;;6145428;23;20013;-70
2023/05/30 00:05:09;;;;;;;2.70;1.40;;;15.80;61.10;;;;;;6124160;23;20421;-70
2023/05/30 00:07:35;;;;;;;3.90;2.10;;;15.80;61.10;;;;;;6123200;23;20453;-70
2023/05/30 00:10:01;;;;;;;5.40;1.73;;;15.80;61.00;;;;;;6122378;23;20006;-70
2023/05/30 00:12:27;;;;;;;3.83;1.95;;;15.80;61.00;;;;;;6122658;23;20018;-69
2023/05/30 00:14:55;;;;;;;4.32;1.60;;;15.80;61.00;;;;;;6123389;23;20050;-69
2023/05/30 00:17:21;;;;;;;5.90;2.33;;;15.70;61.00;;;;;;6145560;23;20233;-69
2023/05/30 00:19:47;;;;;;;4.28;2.10;;;15.70;61.00;;;;;;6121742;23;20029;-69
2023/05/30 00:22:13;;;;;;;5.13;2.60;;;15.70;61.00;;;;;;6122993;23;20436;-69
2023/05/30 00:24:39;;;;;;;4.50;1.92;;;15.70;61.50;;;;;;6120856;23;20025;-69
2023/05/30 00:27:05;;;;;;;3.28;2.00;;;15.70;61.00;;;;;;6122634;23;20420;-69
2023/05/30 00:29:31;;;;;;;7.38;2.40;;;15.60;61.00;;;;;;6122701;23;20006;-69
2023/05/30 00:31:57;;;;;;;3.85;1.85;;;15.60;61.20;;;;;;6121227;23;20018;-69
2023/05/30 00:34:22;;;;;;;4.80;1.80;;;15.60;61.10;;;;;;6122838;23;20010;-69
2023/05/30 00:36:48;;;;;;;3.80;1.52;;;15.60;61.30;;;;;;6122464;23;20010;-70
2023/05/30 00:39:15;;;;;;;3.97;1.63;;;15.60;61.40;;;;;;6121753;23;20021;-70
2023/05/30 00:41:41;;;;;;;3.90;1.60;;;15.60;61.40;;;;;;6122042;23;20325;-70
2023/05/30 00:44:07;;;;;;;3.92;1.90;;;15.60;61.50;;;;;;6122350;23;20137;-70
2023/05/30 00:46:32;;;;;;;6.13;1.70;;;15.60;61.50;;;;;;6123066;23;20417;-69
2023/05/30 00:48:59;;;;;;;9.40;1.95;;;15.60;61.50;;;;;;6146412;23;20012;-70
2023/05/30 00:51:27;;;;;;;4.32;1.80;;;15.50;61.70;;;;;;6121301;23;20034;-67
2023/05/30 00:53:53;;;;;;;5.20;2.30;;;15.50;61.60;;;;;;6123599;23;20147;-69
2023/05/30 00:56:19;;;;;;;4.05;1.70;;;15.50;61.60;;;;;;6122254;23;20420;-68
2023/05/30 00:58:45;;;;;;;4.20;1.75;;;15.40;61.90;;;;;;6121976;23;20014;-69
2023/05/30 01:01:12;;;;;;;3.65;1.55;;;15.40;61.80;;;;;;6143609;23;20021;-68
2023/05/30 01:03:38;;;;;;;5.75;1.85;;;15.40;61.80;;;;;;6121544;23;20014;-69
2023/05/30 01:06:03;;;;;;;3.85;2.10;;;15.40;62.00;;;;;;6120167;23;20014;-69
2023/05/30 01:08:29;;;;;;;5.32;1.77;;;15.40;62.20;;;;;;6122699;23;20014;-68
2023/05/30 01:11:07;;;;;;;3.03;1.63;;;15.40;62.40;;;;;;6121618;23;20017;-68
2023/05/30 01:13:51;;;;;;;4.68;2.60;;;15.30;62.50;;;;;;6122227;23;20026;-68
2023/05/30 01:16:23;;;;;;;5.22;2.10;;;15.30;62.60;;;;;;6121804;23;20017;-69
2023/05/30 01:19:12;;;;;;;4.65;2.10;;;15.30;62.60;;;;;;6120872;23;20010;-67
2023/05/30 01:21:38;;;;;;;4.03;1.98;;;15.30;62.70;;;;;;6144862;23;20065;-68
2023/05/30 01:24:30;;;;;;;4.53;2.08;;;15.30;62.80;;;;;;6123222;23;20483;-76
2023/05/30 01:27:31;;;;;;;3.83;1.77;;;15.30;62.90;;;;;;6121047;23;20010;-77
2023/05/30 01:29:57;;;;;;;5.38;1.88;;;15.20;62.90;;;;;;6092273;23;20317;-77
2023/05/30 01:32:23;;;;;;;5.80;1.77;;;15.20;63.00;;;;;;6123599;23;20354;-77
2023/05/30 01:34:49;;;;;;;2.45;1.50;;;15.20;63.10;;;;;;6126316;23;20006;-68
2023/05/30 01:37:15;;;;;;;5.72;2.15;;;15.20;63.30;;;;;;6122501;23;20013;-67
2023/05/30 01:39:41;;;;;;;4.68;2.22;;;15.20;63.40;;;;;;6123083;23;20016;-67
2023/05/30 01:42:08;;;;;;;4.78;2.00;;;15.20;63.50;;;;;;6128018;23;20010;-68
2023/05/30 01:44:58;;;;;;;5.35;1.80;;;15.20;63.60;;;;;;6123344;23;20335;-67
2023/05/30 01:47:31;;;;;;;4.25;1.90;;;15.10;63.70;;;;;;6142416;23;20013;-68
2023/05/30 01:50:09;;;;;;;7.53;1.98;;;15.10;63.70;;;;;;6121942;23;20009;-67
2023/05/30 01:52:39;;;;;;;5.47;2.58;;;15.10;63.70;;;;;;6120719;23;20359;-67
2023/05/30 01:55:08;;;;;;;4.05;1.90;;;15.10;63.70;;;;;;6121983;23;20012;-67
2023/05/30 01:57:39;;;;;;;4.20;2.17;;;15.10;63.90;;;;;;6122200;23;20013;-67
2023/05/30 02:00:06;;;;;;;4.55;2.55;;;15.00;63.90;;;;;;6122769;23;20014;-67
2023/05/30 02:02:32;;;;;;;3.67;1.95;;;15.00;64.40;;;;;;6121819;23;20515;-66
2023/05/30 02:05:18;;;;;;;6.50;2.30;;;14.90;64.40;;;;;;6121593;23;20406;-66
2023/05/30 02:08:04;;;;;;;4.25;2.00;;;14.90;64.40;;;;;;6121009;23;20085;-67
2023/05/30 02:10:50;;;;;;;4.63;2.05;;;14.90;64.50;;;;;;6121299;23;20321;-67
2023/05/30 02:13:36;;;;;;;5.53;2.05;;;14.90;64.70;;;;;;6140754;23;20021;-67
2023/05/30 02:16:24;;;;;;;4.45;1.90;;;14.80;64.90;;;;;;6139749;23;20437;-68
2023/05/30 02:19:11;;;;;;;5.72;2.00;;;14.80;65.10;;;;;;6120986;23;20009;-67
2023/05/30 02:21:57;;;;;;;4.35;1.98;;;14.80;65.20;;;;;;6121370;23;20041;-67
2023/05/30 02:24:43;;;;;;;10.68;2.72;;;14.80;65.40;;;;;;6120212;23;20041;-68
2023/05/30 02:27:29;;;;;;;4.05;2.13;;;14.70;65.60;;;;;;6122047;23;20016;-67
2023/05/30 02:30:15;;;;;;;8.98;2.60;;;14.70;65.90;;;;;;6122660;23;20010;-67
2023/05/30 02:33:01;;;;;;;9.80;2.25;;;14.70;66.10;;;;;;6121320;23;20025;-68
2023/05/30 02:35:47;;;;;;;7.25;2.30;;;14.70;66.20;;;;;;6120094;23;20010;-67
2023/05/30 02:38:33;;;;;;;7.00;2.00;;;14.70;66.30;;;;;;6121083;23;20025;-67
2023/05/30 02:41:20;;;;;;;6.75;1.98;;;14.60;66.50;;;;;;6119809;23;20490;-67
2023/05/30 02:44:06;;;;;;;5.18;1.75;;;14.60;66.70;;;;;;6119703;23;20014;-68
2023/05/30 02:46:52;;;;;;;5.38;2.30;;;14.60;66.70;;;;;;6139746;23;20014;-68
2023/05/30 02:49:39;;;;;;;7.00;2.40;;;14.60;66.60;;;;;;6122040;23;20014;-67
2023/05/30 02:52:25;;;;;;;3.83;2.17;;;14.60;66.70;;;;;;6117007;23;20132;-68
2023/05/30 02:55:12;;;;;;;5.80;1.58;;;14.60;67.00;;;;;;6123404;23;20041;-66
2023/05/30 02:57:58;;;;;;;5.63;1.90;;;14.50;67.00;;;;;;6139450;23;20014;-66
2023/05/30 03:00:45;;;;;;;6.45;1.98;;;14.50;67.30;;;;;;6120381;23;20053;-66
2023/05/30 03:03:31;;;;;;;5.38;2.13;;;14.50;67.60;;;;;;6121012;23;20440;-66
2023/05/30 03:06:18;;;;;;;3.85;1.98;;;14.50;67.70;;;;;;6120346;23;20014;-69
2023/05/30 03:09:04;;;;;;;5.00;2.40;;;14.50;67.90;;;;;;6122300;23;20716;-69
2023/05/30 03:11:50;;;;;;;6.35;2.25;;;14.50;67.80;;;;;;6120598;23;20022;-69
2023/05/30 03:14:36;;;;;;;6.50;1.80;;;14.50;67.90;;;;;;6120499;23;20017;-69
2023/05/30 03:17:22;;;;;;;6.13;3.08;;;14.50;68.20;;;;;;6120683;23;20404;-69
2023/05/30 03:20:08;;;;;;;5.45;2.10;;;14.50;68.50;;;;;;6140294;23;20013;-69
2023/05/30 03:22:54;;;;;;;6.45;1.92;;;14.50;68.70;;;;;;6139476;23;20033;-69
2023/05/30 03:25:40;;;;;;;5.65;2.05;;;14.50;69.40;;;;;;6118646;23;20018;-69
2023/05/30 03:28:26;;;;;;;4.85;2.08;;;14.50;68.80;;;;;;6140700;23;20014;-68
2023/05/30 03:31:12;;;;;;;5.00;1.95;;;14.60;69.00;;;;;;6120035;23;20010;-69
2023/05/30 03:33:59;;;;;;;4.75;2.03;;;14.60;69.10;;;;;;6122809;23;20020;-69
2023/05/30 03:36:45;;;;;;;4.25;1.90;;;14.60;69.40;;;;;;6121451;23;20037;-69
2023/05/30 03:39:31;;;;;;;5.63;1.90;;;14.60;69.60;;;;;;6122882;23;20021;-70
2023/05/30 03:42:17;;;;;;;4.82;2.33;;;14.60;69.60;;;;;;6118304;23;20100;-69
2023/05/30 03:45:03;;;;;;;3.75;1.90;;;14.60;69.60;;;;;;6140662;23;20372;-70
2023/05/30 03:47:49;;;;;;;6.53;2.30;;;14.60;69.70;;;;;;6140048;23;20046;-67
2023/05/30 03:50:36;;;;;;;4.13;2.08;;;14.60;69.60;;;;;;6120288;23;20026;-67
2023/05/30 03:53:22;;;;;;;4.63;2.35;;;14.60;69.50;;;;;;6121196;23;20411;-67
2023/05/30 03:56:08;;;;;;;6.57;2.38;;;14.60;70.00;;;;;;6118365;23;20018;-67
2023/05/30 03:58:54;;;;;;;4.53;2.13;;;14.60;70.10;;;;;;6120776;23;20108;-67
2023/05/30 04:01:40;;;;;;;7.10;2.08;;;14.70;70.20;;;;;;6118509;23;20464;-67
2023/05/30 04:04:26;;;;;;;4.68;2.30;;;14.70;70.20;;;;;;6119292;23;20010;-67
2023/05/30 04:07:12;;;;;;;8.98;1.70;;;14.70;70.00;;;;;;6120402;23;20032;-67
2023/05/30 04:09:58;;;;;;;6.22;1.90;;;14.70;70.20;;;;;;6139102;23;20010;-66
2023/05/30 04:12:44;;;;;;;2.85;1.80;;;14.70;70.20;;;;;;6118989;23;20030;-66
2023/05/30 04:15:30;;;;;;;5.65;2.08;;;14.80;70.30;;;;;;6119550;23;20435;-66
2023/05/30 04:18:16;;;;;;;4.95;2.08;;;14.80;70.80;;;;;;6119404;23;20384;-66
2023/05/30 04:21:02;;;;;;;4.15;2.55;;;14.80;70.40;;;;;;6119830;23;20030;-66
2023/05/30 04:23:48;;;;;;;6.65;2.67;;;14.80;70.40;;;;;;6118864;23;20045;-67
2023/05/30 04:26:36;;;;;;;8.18;2.53;;;14.80;70.40;;;;;;6120908;23;20014;-75
2023/05/30 04:29:22;;;;;;;5.65;2.20;;;14.80;70.40;;;;;;6122483;23;20033;-74
2023/05/30 04:32:09;;;;;;;5.97;2.30;;;14.90;70.20;;;;;;6121673;23;20495;-73
2023/05/30 04:34:55;;;;;;;6.40;2.22;;;14.90;70.30;;;;;;6122057;23;20006;-74
2023/05/30 04:37:44;;;;;;;5.35;2.15;;;14.90;70.20;;;;;;6139326;23;20084;-74
2023/05/30 04:40:32;;;;;;;5.05;2.35;;;14.90;70.20;;;;;;6120769;23;20013;-76
2023/05/30 04:43:19;;;;;;;9.48;2.78;;;14.90;70.40;;;;;;6141227;23;20010;-76
2023/05/30 04:46:05;;;;;;;4.90;2.00;;;14.90;70.60;;;;;;6140011;23;20520;-75
2023/05/30 04:48:53;;;;;;;6.70;2.45;;;15.00;70.60;;;;;;6121228;23;20121;-75
2023/05/30 04:51:39;;;;;;;5.88;2.03;;;15.00;70.60;;;;;;6123864;23;20553;-76
2023/05/30 04:54:27;;;;;;;4.47;2.15;;;15.00;70.30;;;;;;6141723;23;20014;-77
2023/05/30 04:57:13;;;;;;;4.22;2.10;;;15.00;70.30;;;;;;6120716;23;20077;-78
2023/05/30 04:59:59;;;;;;;5.30;1.80;;;15.10;70.40;;;;;;6122178;23;20018;-78
2023/05/30 05:02:45;;;;;;;3.78;2.05;;;15.10;70.20;;;;;;6139716;23;20452;-77
2023/05/30 05:05:31;;;;;;;6.13;2.58;;;15.10;70.10;;;;;;6119678;23;20010;-77
2023/05/30 05:08:17;;;;;;;7.18;2.45;;;15.20;70.00;;;;;;6123109;23;20036;-76
2023/05/30 05:11:04;;;;;;;5.78;2.28;;;15.20;70.10;;;;;;6122242;23;20413;-68
2023/05/30 05:13:50;;;;;;;7.20;2.15;;;15.20;70.20;;;;;;6121314;23;20025;-68
2023/05/30 05:16:36;;;;;;;6.13;2.22;;;15.30;70.10;;;;;;6119786;23;20010;-72
2023/05/30 05:19:22;;;;;;;5.70;2.25;;;15.30;70.00;;;;;;6121302;23;20036;-67
2023/05/30 05:22:08;;;;;;;7.65;2.78;;;15.30;69.90;;;;;;6120616;23;20498;-67
2023/05/30 05:24:54;;;;;;;5.70;2.38;;;15.40;70.00;;;;;;6120137;23;20444;-71
2023/05/30 05:27:40;;;;;;;5.90;1.95;;;15.40;69.70;;;;;;6122012;23;20014;-70
2023/05/30 05:30:26;;;;;;;5.18;2.00;;;15.40;69.40;;;;;;6119987;23;20430;-72
2023/05/30 05:33:13;;;;;;;4.05;2.00;;;15.50;69.40;;;;;;6120556;23;20043;-72
2023/05/30 05:36:00;;;;;;;5.50;2.47;;;15.50;69.40;;;;;;6119764;23;20017;-73
2023/05/30 05:38:46;;;;;;;4.65;2.55;;;15.50;69.20;;;;;;6119190;23;20024;-70
2023/05/30 05:41:31;;;;;;;5.10;1.85;;;15.50;69.10;;;;;;6119114;23;20017;-70
2023/05/30 05:44:17;;;;;;;4.70;2.00;;;15.60;69.20;;;;;;6120454;23;20397;-70
2023/05/30 05:47:03;;;;;;;5.85;2.10;;;15.60;69.00;;;;;;6119897;23;20490;-72
2023/05/30 05:49:50;;;;;;;4.57;1.77;;;15.60;68.80;;;;;;6120983;23;20017;-70
2023/05/30 05:52:35;;;;;;;5.20;2.20;;;15.70;68.40;;;;;;6121222;23;20018;-70
2023/05/30 05:55:21;;;;;;;7.15;1.98;;;15.70;68.70;;;;;;6120412;23;20010;-74
2023/05/30 05:58:07;;;;;;;4.22;2.35;;;15.70;68.70;;;;;;6120988;23;20014;-74
2023/05/30 06:00:53;;;;;;;5.60;2.30;;;15.70;68.70;;;;;;6117713;23;20105;-72
2023/05/30 06:03:39;;;;;;;10.60;2.55;;;15.80;68.50;;;;;;6138691;23;20013;-69
2023/05/30 06:06:25;;;;;;;4.45;2.05;;;15.90;68.30;;;;;;6139042;23;20417;-69
2023/05/30 06:09:11;;;;;;;7.22;2.03;;;15.90;68.50;;;;;;6122441;23;20343;-68
2023/05/30 06:11:58;;;;;;;7.57;2.40;;;16.00;68.50;;;;;;6116516;23;20456;-68
2023/05/30 06:14:44;;;;;;;6.57;1.98;;;16.00;68.30;;;;;;6118987;23;20014;-67
2023/05/30 06:17:30;;;;;;;4.63;2.17;;;16.10;68.20;;;;;;6119477;23;20018;-67
2023/05/30 06:20:16;;;;;;;9.18;2.40;;;16.10;68.00;;;;;;6121814;23;20013;-67
2023/05/30 06:23:02;;;;;;;7.22;2.00;;;16.20;68.20;;;;;;6139171;23;20066;-67
2023/05/30 06:25:48;;;;;;;4.97;2.05;;;16.20;68.10;;;;;;6118222;23;20110;-69
2023/05/30 06:28:35;;;;;;;6.28;2.08;;;16.30;68.40;;;;;;6118595;23;20014;-68
2023/05/30 06:31:21;;;;;;;4.07;1.67;;;16.30;67.60;;;;;;6138375;23;20455;-68
2023/05/30 06:34:07;;;;;;;4.65;2.10;;;16.40;67.20;;;;;;6120018;23;20041;-69
2023/05/30 06:36:54;;;;;;;4.80;2.75;;;16.40;66.80;;;;;;6117422;23;20393;-68
2023/05/30 06:39:40;;;;;;;5.40;1.70;;;16.40;66.50;;;;;;6116467;23;20048;-66
2023/05/30 06:42:26;;;;;;;10.23;2.60;;;16.40;66.30;;;;;;6120556;23;20013;-67
2023/05/30 06:45:12;;;;;;;2.60;1.63;;;16.40;66.20;;;;;;6118300;23;20018;-67
2023/05/30 06:48:01;;;;;;;5.43;2.17;;;16.40;66.20;;;;;;6120074;23;20006;-67
2023/05/30 06:50:47;;;;;;;3.75;1.75;;;16.50;66.10;;;;;;6118853;23;20017;-67
2023/05/30 06:53:32;;;;;;;2.70;1.40;;;16.50;66.10;;;;;;6118689;23;20026;-67
2023/05/30 06:56:18;;;;;;;6.72;2.70;;;16.60;65.90;;;;;;6117622;23;20068;-67
2023/05/30 06:59:05;;;;;;;7.93;2.05;;;16.60;65.50;;;;;;6117519;23;20344;-66
2023/05/30 07:01:52;;;;;;;4.45;2.38;;;16.70;65.50;;;;;;6117854;23;20356;-65
2023/05/30 07:04:38;;;;;;;4.57;2.13;;;16.70;65.60;;;;;;6121618;23;20014;-65
2023/05/30 07:07:24;;;;;;;5.78;1.90;;;16.80;65.40;;;;;;6118158;23;20002;-65
2023/05/30 07:10:10;;;;;;;7.32;2.95;;;16.80;65.80;;;;;;6117802;23;20090;-65
2023/05/30 07:12:56;;;;;;;3.90;1.80;;;16.90;65.00;;;;;;6118140;23;20214;-66
2023/05/30 07:15:42;;;;;;;5.63;1.73;;;16.90;64.70;;;;;;6117512;23;20014;-66
2023/05/30 07:18:28;;;;;;;5.53;2.00;;;17.00;64.40;;;;;;6117186;23;20440;-66
2023/05/30 07:21:14;;;;;;;3.63;1.70;;;17.10;64.40;;;;;;6139547;23;20038;-66
2023/05/30 07:24:00;;;;;;;3.92;1.70;;;17.10;64.30;;;;;;6120274;23;20017;-67
2023/05/30 07:26:46;;;;;;;3.50;1.75;;;17.20;63.70;;;;;;6116685;23;20013;-66
2023/05/30 07:29:32;;;;;;;5.05;2.10;;;17.20;63.80;;;;;;6116669;23;20014;-65
2023/05/30 07:32:18;;;;;;;2.90;1.50;;;17.20;64.00;;;;;;6117258;23;20096;-66
2023/05/30 07:35:04;;;;;;;5.55;2.08;;;17.30;64.10;;;;;;6123592;23;20017;-66
2023/05/30 07:37:53;;;;;;;6.38;1.98;;;17.40;64.20;;;;;;6120233;23;20014;-66
2023/05/30 07:40:39;;;;;;;7.63;2.40;;;17.50;64.10;;;;;;6118399;23;20014;-67
2023/05/30 07:43:25;;;;;;;6.40;1.65;;;17.50;64.00;;;;;;6120438;23;20010;-66
2023/05/30 07:46:11;;;;;;;9.48;2.45;;;17.60;63.80;;;;;;6118687;23;20455;-66
2023/05/30 07:48:57;;;;;;;4.60;1.65;;;17.70;64.00;;;;;;6118449;23;20010;-67
2023/05/30 07:51:44;;;;;;;5.53;2.05;;;17.80;63.70;;;;;;6118795;23;20083;-67
2023/05/30 07:54:30;;;;;;;4.47;2.13;;;17.90;63.00;;;;;;6119706;23;20025;-67
2023/05/30 07:57:16;;;;;;;5.30;1.88;;;17.90;63.00;;;;;;6117726;23;20018;-66
2023/05/30 08:00:08;;;;;;;4.18;2.08;;;18.00;63.10;;;;;;6119934;23;20018;-66
2023/05/30 08:02:54;;;;;;;3.85;1.73;;;18.00;63.00;;;;;;6122099;23;20018;-67
2023/05/30 08:05:40;;;;;;;31.35;2.88;;;18.10;63.00;;;;;;6121575;23;20368;-67
2023/05/30 08:08:26;;;;;;;5.45;1.83;;;18.10;62.50;;;;;;6120465;23;20072;-67
2023/05/30 08:11:14;;;;;;;3.33;2.00;;;18.30;62.80;;;;;;6121470;23;20009;-68
2023/05/30 08:14:01;;;;;;;4.50;2.15;;;18.40;61.90;;;;;;6123369;23;20396;-67
2023/05/30 08:16:47;;;;;;;5.07;2.25;;;18.50;62.00;;;;;;6121439;23;20475;-67
2023/05/30 08:19:33;;;;;;;2.65;1.50;;;18.50;62.00;;;;;;6123361;23;20068;-67
2023/05/30 08:22:23;;;;;;;6.55;2.25;;;18.60;61.50;;;;;;6120476;23;20098;-67
2023/05/30 08:25:10;;;;;;;3.75;1.75;;;18.70;61.70;;;;;;6123327;23;20408;-67
2023/05/30 08:27:59;;;;;;;4.85;1.90;;;18.80;61.40;;;;;;6121423;23;20045;-66
2023/05/30 08:30:48;;;;;;;7.38;2.28;;;18.90;60.70;;;;;;6122486;23;20018;-67
2023/05/30 08:33:36;;;;;;;6.35;2.20;;;18.90;60.50;;;;;;6122241;23;20026;-68
2023/05/30 08:36:22;;;;;;;14.77;1.92;;;18.90;60.30;;;;;;6120811;23;20507;-68
2023/05/30 08:39:08;;;;;;;7.40;2.08;;;18.90;59.90;;;;;;6120413;23;20314;-67
2023/05/30 08:41:54;;;;;;;3.38;1.83;;;18.90;59.80;;;;;;6119488;23;20336;-68
2023/05/30 08:44:40;;;;;;;8.02;2.50;;;19.00;59.60;;;;;;6120282;23;20025;-68
2023/05/30 08:47:26;;;;;;;6.32;1.80;;;19.00;59.10;;;;;;6138599;23;20010;-68
2023/05/30 08:50:13;;;;;;;5.82;2.00;;;19.00;58.20;;;;;;6122045;23;20016;-67
2023/05/30 08:53:08;;;;;;;5.95;2.00;;;19.10;58.10;;;;;;6122931;23;20017;-67
2023/05/30 08:56:10;;;;;;;5.72;2.53;;;19.10;57.80;;;;;;6119881;23;20017;-67
2023/05/30 08:59:00;;;;;;;4.15;1.75;;;19.20;57.70;;;;;;6114682;23;20041;-66
2023/05/30 09:01:49;;;;;;;4.35;1.80;;;19.30;58.00;;;;;;6114886;23;20477;-67
2023/05/30 09:04:35;;;;;;;5.78;1.85;;;19.30;57.60;;;;;;6112709;23;20044;-66
2023/05/30 09:07:22;;;;;;;2.88;1.63;;;19.40;56.50;;;;;;6132873;23;20455;-64
2023/05/30 09:10:10;;;;;;;7.55;3.08;;;19.50;56.80;;;;;;6115480;23;20014;-65
2023/05/30 09:12:57;;;;;;;7.03;1.67;;;19.50;56.80;;;;;;6115273;23;20018;-66
2023/05/30 09:15:44;;;;;;;4.65;1.85;;;19.60;56.60;;;;;;6111782;23;20014;-65
2023/05/30 09:18:32;;;;;;;12.25;2.65;;;19.60;56.20;;;;;;6112357;23;20041;-65
2023/05/30 09:21:19;;;;;;;7.70;2.00;;;19.60;54.70;;;;;;6111092;23;20014;-65
2023/05/30 09:24:05;;;;;;;8.23;2.22;;;19.70;54.50;;;;;;6111987;23;20018;-66
2023/05/30 09:27:05;;;;;;;4.30;1.80;;;19.60;54.60;;;;;;6113446;23;20333;-66
2023/05/30 09:29:51;;;;;;;3.35;1.80;;;19.70;54.60;;;;;;6115109;23;20096;-65
2023/05/30 09:32:38;;;;;;;4.78;1.85;;;19.70;54.60;;;;;;6118656;23;20026;-64
2023/05/30 09:35:25;;;;;;;4.45;2.13;;;19.70;54.90;;;;;;6112296;23;20436;-65
2023/05/30 09:38:17;;;;;;;2.50;1.40;;;19.70;55.20;;;;;;6113617;23;20446;-65
2023/05/30 09:41:04;;;;;;;6.53;1.95;;;19.80;55.70;;;;;;6114221;23;20017;-65
2023/05/30 09:43:53;;;;;;;5.05;1.75;;;19.90;55.50;;;;;;6112160;23;20511;-66
2023/05/30 09:46:39;;;;;;;7.68;2.25;;;20.00;55.40;;;;;;6118540;23;20062;-66
2023/05/30 09:49:29;;;;;;;3.78;1.70;;;20.10;55.50;;;;;;6112129;23;20049;-66
2023/05/30 09:52:15;;;;;;;3.20;1.50;;;20.10;55.10;;;;;;6114791;23;20635;-67
2023/05/30 09:55:06;;;;;;;2.78;1.80;;;20.10;55.10;;;;;;6110776;23;20838;-67
2023/05/30 09:57:53;;;;;;;5.60;1.90;;;20.10;55.00;;;;;;6112574;23;20025;-67
2023/05/30 10:00:52;;;;;;;4.50;2.10;;;20.10;54.40;;;;;;6113884;23;20360;-67
2023/05/30 10:03:43;;;;;;;5.32;1.73;;;20.10;54.30;;;;;;6115221;23;20041;-66
2023/05/30 10:06:30;;;;;;;5.32;1.98;;;20.20;54.70;;;;;;6115591;23;20049;-66
2023/05/30 10:09:16;;;;;;;4.78;1.90;;;20.30;54.30;;;;;;6112064;23;20086;-67
2023/05/30 10:12:03;;;;;;;9.05;2.17;;;20.30;54.10;;;;;;6112404;23;20021;-66
2023/05/30 10:14:49;;;;;;;4.65;2.30;;;20.40;53.50;;;;;;6112718;23;20077;-66
2023/05/30 10:17:38;;;;;;;5.35;1.90;;;20.40;53.70;;;;;;6110662;23;20374;-67
2023/05/30 10:20:27;;;;;;;5.53;1.58;;;20.50;53.20;;;;;;6131859;23;20014;-67
2023/05/30 10:23:13;;;;;;;4.32;2.25;;;20.60;53.00;;;;;;6112482;23;20122;-68
2023/05/30 10:26:02;;;;;;;2.90;1.45;;;20.70;53.00;;;;;;6112403;23;20400;-67
2023/05/30 10:28:50;;;;;;;7.75;1.85;;;20.70;52.90;;;;;;6113312;23;20017;-66
2023/05/30 10:31:36;;;;;;;3.83;2.33;;;20.70;52.80;;;;;;6112949;23;20096;-66
2023/05/30 10:34:34;;;;;;;6.25;3.00;;;20.70;52.30;;;;;;6112603;23;20097;-66
2023/05/30 10:37:20;;;;;;;4.75;1.80;;;20.80;52.50;;;;;;6131661;23;20020;-66
2023/05/30 10:40:12;;;;;;;6.85;1.88;;;20.80;52.70;;;;;;6114331;23;20018;-67
2023/05/30 10:43:13;;;;;;;5.25;1.88;;;21.00;52.60;;;;;;6111893;23;20462;-66
2023/05/30 10:46:08;;;;;;;5.93;1.80;;;21.00;51.60;;;;;;6114693;23;20260;-66
2023/05/30 10:48:58;;;;;;;;;;;21.00;51.50;;;;;;6112671;23;20052;-66
2023/05/30 10:52:00;;;;;;;3.97;1.58;;;21.00;52.20;;;;;;6114132;23;20261;-66
2023/05/30 10:54:47;;;;;;;6.10;1.50;;;21.00;52.00;;;;;;6112403;23;20463;-66
2023/05/30 10:57:33;;;;;;;3.05;1.55;;;21.00;52.20;;;;;;6111758;23;20463;-66
2023/05/30 11:00:30;;;;;;;4.63;1.83;;;21.00;51.70;;;;;;6116767;23;20026;-66
2023/05/30 11:03:35;;;;;;;4.28;2.00;;;21.10;50.60;;;;;;6117300;23;20013;-67
2023/05/30 11:06:22;;;;;;;3.92;1.90;;;21.10;50.40;;;;;;6113063;23;20823;-66
2023/05/30 11:09:11;;;;;;;5.57;2.35;;;21.20;50.30;;;;;;6130200;23;20399;-67
2023/05/30 11:11:59;;;;;;;4.18;1.52;;;21.30;50.80;;;;;;6112124;23;20495;-65
2023/05/30 11:14:55;;;;;;;9.98;2.30;;;21.40;50.70;;;;;;6111916;23;20093;-66
2023/05/30 11:17:41;;;;;;;7.50;1.90;;;21.40;50.10;;;;;;6111218;23;20018;-66
2023/05/30 11:20:27;;;;;;;7.28;1.75;;;21.40;50.00;;;;;;6114025;23;20476;-66
2023/05/30 11:23:13;;;;;;;4.85;1.75;;;21.50;49.50;;;;;;6129950;23;20456;-66
2023/05/30 11:25:59;;;;;;;2.88;1.73;;;21.50;49.80;;;;;;6114408;23;20009;-66
2023/05/30 11:28:45;;;;;;;3.78;1.80;;;21.60;49.70;;;;;;6112614;23;20452;-66
2023/05/30 11:31:32;;;;;;;6.82;1.70;;;21.60;49.70;;;;;;6120290;23;20118;-66
2023/05/30 11:34:18;;;;;;;4.28;1.70;;;21.70;50.20;;;;;;6118742;23;20389;-66
2023/05/30 11:37:05;;;;;;;3.30;1.52;;;21.70;49.70;;;;;;6119918;23;20013;-66
2023/05/30 11:39:57;;;;;;;4.60;1.75;;;21.70;49.50;;;;;;6126601;23;20021;-66
2023/05/30 11:42:43;;;;;;;3.63;1.52;;;21.80;49.60;;;;;;6122418;23;20036;-66
2023/05/30 11:45:29;;;;;;;4.97;1.48;;;21.80;49.20;;;;;;6064927;23;20128;-80
2023/05/30 11:48:10;;;;;;;5.28;1.88;;;21.80;49.50;;;;;;6117040;23;20101;-80
2023/05/30 11:50:41;;;;;;;5.00;1.52;;;21.80;49.10;;;;;;6123577;23;20013;-81
2023/05/30 11:53:24;;;;;;;2.75;1.65;;;21.80;49.00;;;;;;6124630;23;20105;-80
2023/05/30 11:55:50;;;;;;;5.90;1.50;;;21.70;49.30;;;;;;6125325;23;20029;-80
2023/05/30 11:58:19;;;;;;;2.83;1.58;;;21.70;49.20;;;;;;6124824;23;20013;-81
2023/05/30 12:00:48;;;;;;;2.65;1.60;;;21.70;48.90;;;;;;6124269;23;20018;-81
2023/05/30 12:03:18;;;;;;;6.43;1.80;;;21.70;49.50;;;;;;6126198;23;20086;-79
2023/05/30 12:05:45;;;;;;;6.22;2.15;;;21.80;49.30;;;;;;6124545;23;20010;-79
2023/05/30 12:08:13;;;;;;;5.13;1.80;;;21.90;49.60;;;;;;6124384;23;20013;-79
2023/05/30 12:10:38;;;;;;;2.85;1.35;;;22.00;49.60;;;;;;6125062;23;20006;-79
2023/05/30 12:13:05;;;;;;;5.90;1.85;;;22.00;49.90;;;;;;6123769;23;20330;-79
2023/05/30 12:15:31;;;;;;;3.88;1.70;;;22.10;50.00;;;;;;6123384;23;20002;-81
2023/05/30 12:18:00;;;;;;;3.20;1.73;;;22.10;49.80;;;;;;6125249;23;20061;-79
2023/05/30 12:20:26;;;;;;;4.65;1.95;;;22.20;50.00;;;;;;6124078;23;20354;-79
2023/05/30 12:22:52;;;;;;;3.40;1.85;;;22.20;50.10;;;;;;6124766;23;20093;-80
2023/05/30 12:25:25;;;;;;;6.57;1.67;;;22.30;50.30;;;;;;6122916;23;20431;-80
2023/05/30 12:27:50;;;;;;;4.57;2.53;;;22.40;50.40;;;;;;6125048;23;20025;-80
2023/05/30 12:30:18;;;;;;;2.40;1.55;;;22.50;50.40;;;;;;6124863;23;20006;-79
2023/05/30 12:32:48;;;;;;;6.28;1.70;;;22.60;50.20;;;;;;6124566;23;20107;-78
2023/05/30 12:35:15;;;;;;;2.92;1.73;;;22.60;49.80;;;;;;6123487;23;20002;-79
2023/05/30 12:37:41;;;;;;;4.07;1.60;;;22.70;50.00;;;;;;6125315;23;20089;-78
2023/05/30 12:40:08;;;;;;;8.85;1.90;;;22.70;50.10;;;;;;6123991;23;20365;-79
2023/05/30 12:42:36;;;;;;;2.53;1.70;;;22.80;50.00;;;;;;6124826;23;20013;-78
2023/05/30 12:45:06;;;;;;;3.35;1.77;;;22.90;49.90;;;;;;6123719;23;20025;-78
2023/05/30 12:47:33;;;;;;;5.00;2.03;;;22.90;50.00;;;;;;6125564;23;20037;-79
2023/05/30 12:50:00;;;;;;;3.28;1.60;;;23.00;49.80;;;;;;6122103;23;20009;-81
2023/05/30 12:52:27;;;;;;;3.00;1.50;;;23.10;49.70;;;;;;6122837;23;20029;-81
2023/05/30 12:54:53;;;;;;;4.70;1.75;;;23.10;49.60;;;;;;6124440;23;20010;-80
2023/05/30 12:57:25;;;;;;;6.38;1.98;;;23.10;49.30;;;;;;6123680;23;20044;-80
2023/05/30 12:59:52;;;;;;;3.03;1.85;;;23.10;49.30;;;;;;6123307;23;20010;-81
2023/05/30 13:02:20;;;;;;;2.42;1.38;;;23.00;48.90;;;;;;6122894;23;20010;-82
2023/05/30 13:04:46;;;;;;;3.15;1.80;;;23.10;49.30;;;;;;6122443;23;20435;-78
2023/05/30 13:07:12;;;;;;;2.20;1.38;;;23.30;49.40;;;;;;6123016;23;20336;-79
2023/05/30 13:09:39;;;;;;;3.95;1.85;;;23.30;49.60;;;;;;6122715;23;20006;-82
2023/05/30 13:12:09;;;;;;;2.47;1.35;;;23.40;49.50;;;;;;6123230;23;20028;-81
2023/05/30 13:14:40;;;;;;;2.42;1.70;;;23.40;49.60;;;;;;6121145;23;20077;-77
2023/05/30 13:17:06;;;;;;;4.85;1.85;;;23.40;49.40;;;;;;6124754;23;20063;-78
2023/05/30 13:19:32;;;;;;;2.30;1.38;;;23.40;49.60;;;;;;6124840;23;20014;-79
2023/05/30 13:21:58;;;;;;;2.97;1.50;;;23.60;50.00;;;;;;6123910;23;20420;-80
2023/05/30 13:24:24;;;;;;;3.33;1.48;;;23.70;49.30;;;;;;6124151;23;20080;-78
2023/05/30 13:26:50;;;;;;;4.85;1.83;;;23.80;49.10;;;;;;6122592;23;20811;-79
2023/05/30 13:29:16;;;;;;;4.60;1.75;;;23.90;49.00;;;;;;6123649;23;20024;-80
2023/05/30 13:31:42;;;;;;;4.63;1.88;;;23.90;47.90;;;;;;6122484;23;20339;-79
2023/05/30 13:34:07;;;;;;;3.00;1.55;;;23.80;47.60;;;;;;6123274;23;20025;-78
2023/05/30 13:36:33;;;;;;;5.78;1.92;;;23.80;47.60;;;;;;6122394;23;20010;-78
2023/05/30 13:38:58;;;;;;;4.00;1.50;;;23.80;47.20;;;;;;6122376;23;20010;-79
2023/05/30 13:41:25;;;;;;;4.78;1.20;;;23.80;47.80;;;;;;6121526;23;20014;-78
2023/05/30 13:43:51;;;;;;;2.13;1.42;;;23.90;47.20;;;;;;6121515;23;20073;-79
2023/05/30 13:46:17;;;;;;;4.70;1.80;;;24.00;47.10;;;;;;6120619;23;20025;-79
2023/05/30 13:48:43;;;;;;;7.00;1.70;;;24.10;47.00;;;;;;6122344;23;20296;-78
2023/05/30 13:51:10;;;;;;;4.85;1.98;;;24.10;46.80;;;;;;6121456;23;20006;-78
2023/05/30 13:53:36;;;;;;;3.50;1.48;;;24.10;46.60;;;;;;6122241;23;20480;-78
2023/05/30 13:56:02;;;;;;;3.10;1.73;;;24.10;46.40;;;;;;6121523;23;20006;-77
2023/05/30 13:58:28;;;;;;;3.90;1.92;;;24.00;46.30;;;;;;6123037;23;20013;-80